createdAt,value
2022-09-20T00:01:21.933Z,48.11
2022-09-20T00:03:54.875Z,48.51
2022-09-20T00:06:25.179Z,49.00
2022-09-20T00:08:53.261Z,48.79
2022-09-20T00:11:23.364Z,48.26
2022-09-20T00:13:53.658Z,48.46
2022-09-20T00:16:24.199Z,48.03
2022-09-20T00:18:53.589Z,48.68
2022-09-20T00:21:23.632Z,48.76
2022-09-20T00:23:52.686Z,49.44
2022-09-20T00:26:20.863Z,49.40
2022-09-20T00:28:48.876Z,49.78
2022-09-20T00:31:16.485Z,49.91
2022-09-20T00:34:02.279Z,50.10
2022-09-20T00:36:30.011Z,50.44
2022-09-20T00:39:04.401Z,51.18
2022-09-20T00:41:33.079Z,50.73
2022-09-20T00:44:01.464Z,49.89
2022-09-20T00:46:40.762Z,49.44
2022-09-20T00:49:19.514Z,48.87
2022-09-20T00:51:51.596Z,48.39
2022-09-20T00:54:22.090Z,48.38
2022-09-20T00:56:50.022Z,47.88
2022-09-20T00:59:25.811Z,49.33
2022-09-20T01:02:03.428Z,49.30
2022-09-20T01:04:31.040Z,48.71
2022-09-20T01:07:03.025Z,48.68
2022-09-20T01:09:30.471Z,47.84
2022-09-20T01:12:02.620Z,47.98
2022-09-20T01:14:30.696Z,47.62
2022-09-20T01:17:02.534Z,48.72
2022-09-20T01:19:58.870Z,49.29
2022-09-20T01:22:46.957Z,50.10
2022-09-20T01:25:29.387Z,50.89
2022-09-20T01:27:56.948Z,51.33
2022-09-20T01:30:39.318Z,51.87
2022-09-20T01:33:37.027Z,51.57
2022-09-20T01:36:06.539Z,52.37
2022-09-20T01:38:43.770Z,51.83
2022-09-20T01:41:55.413Z,51.87
2022-09-20T01:44:22.775Z,52.09
2022-09-20T01:47:00.144Z,52.41
2022-09-20T01:49:46.911Z,52.04
2022-09-20T01:52:37.483Z,52.36
2022-09-20T01:55:31.041Z,52.66
2022-09-20T01:58:10.407Z,52.76
2022-09-20T02:00:52.951Z,52.95
2022-09-20T02:03:33.870Z,52.62
2022-09-20T02:06:16.356Z,52.73
2022-09-20T02:09:06.269Z,52.15
2022-09-20T02:12:04.175Z,51.26
2022-09-20T02:14:52.788Z,49.84
2022-09-20T02:17:34.941Z,48.45
2022-09-20T02:20:15.896Z,47.45
2022-09-20T02:23:20.815Z,46.81
2022-09-20T02:26:12.094Z,45.88
2022-09-20T02:29:13.610Z,44.64
2022-09-20T02:32:29.055Z,43.63
2022-09-20T02:35:17.178Z,42.24
2022-09-20T02:38:14.292Z,41.14
2022-09-20T02:41:04.546Z,40.36
2022-09-20T02:43:45.363Z,41.52
2022-09-20T02:46:29.238Z,40.25
2022-09-20T02:49:25.345Z,38.79
2022-09-20T02:51:58.515Z,37.64
2022-09-20T02:55:04.776Z,38.06
2022-09-20T02:58:07.501Z,35.77
2022-09-20T03:00:45.590Z,34.51
2022-09-20T03:03:30.408Z,33.56
2022-09-20T03:06:04.564Z,32.92
2022-09-20T03:08:47.168Z,32.92
2022-09-20T03:11:35.458Z,32.32
2022-09-20T03:14:11.817Z,31.29
2022-09-20T03:16:49.915Z,30.83
2022-09-20T03:19:35.683Z,30.42
2022-09-20T03:22:28.960Z,29.17
2022-09-20T03:25:21.606Z,29.42
2022-09-20T03:28:19.738Z,28.97
2022-09-20T03:30:52.923Z,28.10
2022-09-20T03:33:26.353Z,28.29
2022-09-20T03:36:18.570Z,29.28
2022-09-20T03:39:04.387Z,30.51
2022-09-20T03:41:56.314Z,29.39
2022-09-20T03:44:51.021Z,30.43
2022-09-20T03:47:37.033Z,29.56
2022-09-20T03:50:13.279Z,30.05
2022-09-20T03:53:07.170Z,31.72
2022-09-20T03:55:58.568Z,30.49
2022-09-20T03:58:49.823Z,27.22
2022-09-20T04:01:32.944Z,26.58
2022-09-20T04:04:12.599Z,27.85
2022-09-20T04:07:01.567Z,27.60
2022-09-20T04:09:57.955Z,25.80
2022-09-20T04:12:47.283Z,28.22
2022-09-20T04:15:38.019Z,29.42
2022-09-20T04:18:20.047Z,25.83
2022-09-20T04:20:53.523Z,24.93
2022-09-20T04:23:45.499Z,26.40
2022-09-20T04:26:14.863Z,30.34
2022-09-20T04:29:02.179Z,26.64
2022-09-20T04:31:54.514Z,23.80
2022-09-20T04:35:18.796Z,26.00
2022-09-20T04:37:47.838Z,21.78
2022-09-20T04:40:15.338Z,21.71
2022-09-20T04:42:57.809Z,23.41
2022-09-20T04:45:29.322Z,20.94
2022-09-20T04:48:28.204Z,21.72
2022-09-20T04:51:39.868Z,23.43
2022-09-20T04:54:22.443Z,23.27
2022-09-20T04:57:06.014Z,20.86
2022-09-20T04:59:42.448Z,20.15
2022-09-20T05:02:27.627Z,18.94
2022-09-20T05:05:02.463Z,18.61
2022-09-20T05:07:59.266Z,18.77
2022-09-20T05:10:55.999Z,17.74
2022-09-20T05:13:55.688Z,21.26
2022-09-20T05:16:28.704Z,16.95
2022-09-20T05:19:15.884Z,16.75
2022-09-20T05:22:10.368Z,16.67
2022-09-20T05:24:56.460Z,16.51
2022-09-20T05:27:34.629Z,16.55
2022-09-20T05:30:11.571Z,15.92
2022-09-20T05:33:06.020Z,15.54
2022-09-20T05:35:44.317Z,15.61
2022-09-20T05:38:35.929Z,17.08
2022-09-20T05:41:14.408Z,15.64
2022-09-20T05:43:53.334Z,15.42
2022-09-20T05:46:36.001Z,15.50
2022-09-20T05:49:29.565Z,16.17
2022-09-20T05:52:22.939Z,14.51
2022-09-20T05:55:11.581Z,15.74
2022-09-20T05:58:15.839Z,17.34
2022-09-20T06:00:53.618Z,13.67
2022-09-20T06:03:43.177Z,14.13
2022-09-20T06:06:42.956Z,13.54
2022-09-20T06:09:39.126Z,13.23
2022-09-20T06:12:23.097Z,12.10
2022-09-20T06:15:21.793Z,12.92
2022-09-20T06:18:25.024Z,12.38
2022-09-20T06:21:03.262Z,11.62
2022-09-20T06:23:32.694Z,11.68
2022-09-20T06:26:10.589Z,12.00
2022-09-20T06:28:42.261Z,11.79
2022-09-20T06:31:11.605Z,11.58
2022-09-20T06:34:09.437Z,13.12
2022-09-20T06:36:58.039Z,11.62
2022-09-20T06:40:07.066Z,13.90
2022-09-20T06:42:34.493Z,11.47
2022-09-20T06:45:02.024Z,11.37
2022-09-20T06:47:32.409Z,11.43
2022-09-20T06:50:01.288Z,11.26
2022-09-20T06:52:30.702Z,11.13
2022-09-20T06:54:58.197Z,11.03
2022-09-20T06:57:36.328Z,12.31
2022-09-20T07:00:10.506Z,10.85
2022-09-20T07:02:38.137Z,10.98
2022-09-20T07:05:07.782Z,10.72
2022-09-20T07:07:35.249Z,11.24
2022-09-20T07:10:02.634Z,11.47
2022-09-20T07:12:33.735Z,11.05
2022-09-20T07:15:01.808Z,11.20
2022-09-20T07:17:31.126Z,11.19
2022-09-20T07:19:58.467Z,11.98
2022-09-20T07:22:26.678Z,11.70
2022-09-20T07:24:54.097Z,11.41
2022-09-20T07:27:21.794Z,11.33
2022-09-20T07:29:49.183Z,11.51
2022-09-20T07:32:17.448Z,12.03
2022-09-20T07:34:44.860Z,11.85
2022-09-20T07:37:12.315Z,12.45
2022-09-20T07:39:39.807Z,12.50
2022-09-20T07:42:07.756Z,12.79
2022-09-20T07:44:35.241Z,12.85
2022-09-20T07:47:02.801Z,12.96
2022-09-20T07:49:30.644Z,12.71
2022-09-20T07:51:58.751Z,12.70
2022-09-20T07:54:27.918Z,13.10
2022-09-20T07:56:55.556Z,12.95
2022-09-20T07:59:23.067Z,13.21
2022-09-20T08:01:50.506Z,13.33
2022-09-20T08:04:20.546Z,13.46
2022-09-20T08:06:48.014Z,13.77
2022-09-20T08:09:15.593Z,13.72
2022-09-20T08:11:43.824Z,13.91
2022-09-20T08:14:16.233Z,14.00
2022-09-20T08:16:47.650Z,15.12
2022-09-20T08:19:21.155Z,14.52
2022-09-20T08:21:50.328Z,13.75
2022-09-20T08:24:18.094Z,14.11
2022-09-20T08:26:45.869Z,14.21
2022-09-20T08:29:15.324Z,14.41
2022-09-20T08:31:43.099Z,14.71
2022-09-20T08:34:12.625Z,14.72
2022-09-20T08:36:42.762Z,15.45
2022-09-20T08:42:20.577Z,14.89
2022-09-20T08:45:21.826Z,16.08
2022-09-20T08:48:00.638Z,16.01
2022-09-20T08:50:29.082Z,15.29
2022-09-20T08:53:00.667Z,15.20
2022-09-20T08:55:40.060Z,15.39
2022-09-20T08:58:12.966Z,16.22
2022-09-20T09:00:40.845Z,17.77
2022-09-20T09:03:13.477Z,16.51
2022-09-20T09:05:45.474Z,18.12
2022-09-20T09:08:20.617Z,18.46
2022-09-20T09:11:02.455Z,16.63
2022-09-20T09:13:49.297Z,15.77
2022-09-20T09:16:27.250Z,15.67
2022-09-20T09:18:57.921Z,15.46
2022-09-20T09:21:30.122Z,15.71
2022-09-20T09:24:14.371Z,16.96
2022-09-20T09:26:49.482Z,15.89
2022-09-20T09:29:23.231Z,16.06
2022-09-20T09:31:55.052Z,16.12
2022-09-20T09:34:39.006Z,16.52
2022-09-20T09:37:06.452Z,15.75
2022-09-20T09:39:38.559Z,15.57
2022-09-20T09:42:26.113Z,17.10
2022-09-20T09:44:53.598Z,15.89
2022-09-20T09:47:30.175Z,16.33
2022-09-20T09:50:02.590Z,15.72
2022-09-20T09:52:33.591Z,16.40
2022-09-20T09:55:05.327Z,16.10
2022-09-20T09:58:04.524Z,16.89
2022-09-20T10:00:36.021Z,15.34
2022-09-20T10:03:18.772Z,16.20
2022-09-20T10:05:55.508Z,16.50
2022-09-20T10:08:44.756Z,16.30
2022-09-20T10:11:39.670Z,15.91
2022-09-20T10:14:13.178Z,16.13
2022-09-20T10:17:12.552Z,16.38
2022-09-20T10:19:42.919Z,15.66
2022-09-20T10:23:00.316Z,15.89
2022-09-20T10:25:52.104Z,15.25
2022-09-20T10:28:28.822Z,15.17
2022-09-20T10:31:16.010Z,16.38
2022-09-20T10:33:52.704Z,15.68
2022-09-20T10:36:52.108Z,16.38
2022-09-20T10:39:31.844Z,15.96
2022-09-20T10:42:44.296Z,16.04
2022-09-20T10:45:44.100Z,16.40
2022-09-20T10:48:18.725Z,16.37
2022-09-20T10:50:52.542Z,16.95
2022-09-20T10:53:19.994Z,15.92
2022-09-20T10:56:09.837Z,16.41
2022-09-20T10:58:58.304Z,16.83
2022-09-20T11:01:33.969Z,16.17
2022-09-20T11:04:22.026Z,16.66
2022-09-20T11:07:10.421Z,16.92
2022-09-20T11:09:44.169Z,16.23
2022-09-20T11:12:42.758Z,17.02
2022-09-20T11:15:24.992Z,16.74
2022-09-20T11:17:59.967Z,16.82
2022-09-20T11:20:36.270Z,16.72
2022-09-20T11:23:13.254Z,16.75
2022-09-20T11:25:48.894Z,16.75
2022-09-20T11:28:25.388Z,16.30
2022-09-20T11:31:04.318Z,16.25
2022-09-20T11:33:41.420Z,16.13
2022-09-20T11:36:20.485Z,16.18
2022-09-20T11:38:59.409Z,15.94
2022-09-20T11:41:28.813Z,15.91
2022-09-20T11:44:13.811Z,16.47
2022-09-20T11:46:54.063Z,16.37
2022-09-20T11:49:27.336Z,15.46
2022-09-20T11:52:10.533Z,16.29
2022-09-20T11:55:15.211Z,15.45
2022-09-20T11:57:42.755Z,15.66
2022-09-20T12:00:10.682Z,16.01
2022-09-20T12:02:50.537Z,16.32
2022-09-20T12:05:42.061Z,16.58
2022-09-20T12:08:25.161Z,16.33
2022-09-20T12:11:41.552Z,16.01
2022-09-20T12:14:28.302Z,15.78
2022-09-20T12:16:57.297Z,15.35
2022-09-20T12:19:32.543Z,15.68
2022-09-20T12:21:59.928Z,15.63
2022-09-20T12:24:31.719Z,15.75
2022-09-20T12:27:01.576Z,15.71
2022-09-20T12:29:31.483Z,15.70
2022-09-20T12:32:02.394Z,15.92
2022-09-20T12:34:39.371Z,16.71
2022-09-20T12:37:13.124Z,16.16
2022-09-20T12:39:52.619Z,16.30
2022-09-20T12:42:21.872Z,15.84
2022-09-20T12:45:15.952Z,16.13
2022-09-20T12:47:53.766Z,16.19
2022-09-20T12:50:41.745Z,16.30
2022-09-20T12:53:18.667Z,16.74
2022-09-20T12:56:08.039Z,17.11
2022-09-20T12:58:40.501Z,16.83
2022-09-20T13:01:13.305Z,16.46
2022-09-20T13:03:51.447Z,17.06
2022-09-20T13:06:19.473Z,17.03
2022-09-20T13:09:04.847Z,17.63
2022-09-20T13:11:35.494Z,16.99
2022-09-20T13:14:08.702Z,17.14
2022-09-20T13:16:42.100Z,17.21
2022-09-20T13:19:20.618Z,17.71
2022-09-20T13:22:14.560Z,17.62
2022-09-20T13:24:45.967Z,17.26
2022-09-20T13:27:34.841Z,17.89
2022-09-20T13:30:24.005Z,17.99
2022-09-20T13:32:52.148Z,17.77
2022-09-20T13:35:24.343Z,17.85
2022-09-20T13:37:54.367Z,17.77
2022-09-20T13:40:23.794Z,18.04
2022-09-20T13:43:13.015Z,18.01
2022-09-20T13:45:45.328Z,18.04
2022-09-20T13:48:12.893Z,18.01
2022-09-20T13:50:45.769Z,17.99
2022-09-20T13:53:33.245Z,18.27
2022-09-20T13:56:11.992Z,18.40
2022-09-20T13:58:39.698Z,18.18
2022-09-20T14:01:20.286Z,18.43
2022-09-20T14:03:48.597Z,18.50
2022-09-20T14:06:16.609Z,18.57
2022-09-20T14:08:48.983Z,18.50
2022-09-20T14:11:23.495Z,18.77
2022-09-20T14:13:54.556Z,18.58
2022-09-20T14:16:24.845Z,18.93
2022-09-20T14:18:52.554Z,18.96
2022-09-20T14:21:31.988Z,18.91
2022-09-20T14:24:03.724Z,18.79
2022-09-20T14:26:35.043Z,19.11
2022-09-20T14:29:42.485Z,19.15
2022-09-20T14:32:19.054Z,18.81
2022-09-20T14:34:57.421Z,19.06
2022-09-20T14:37:42.010Z,19.19
2022-09-20T14:40:31.823Z,19.21
2022-09-20T14:43:01.843Z,19.59
2022-09-20T14:45:33.548Z,19.71
2022-09-20T14:48:10.495Z,19.50
2022-09-20T14:50:42.364Z,19.87
2022-09-20T14:53:13.015Z,19.85
2022-09-20T14:55:55.759Z,19.90
2022-09-20T14:58:24.985Z,19.78
2022-09-20T15:01:01.894Z,19.99
2022-09-20T15:03:43.158Z,20.14
2022-09-20T15:06:12.084Z,20.58
2022-09-20T15:08:45.493Z,20.42
2022-09-20T15:11:19.043Z,20.72
2022-09-20T15:13:46.735Z,20.64
2022-09-20T15:16:17.819Z,20.80
2022-09-20T15:18:45.550Z,20.87
2022-09-20T15:21:13.412Z,21.06
2022-09-20T15:23:41.234Z,20.99
2022-09-20T15:26:11.551Z,21.19
2022-09-20T15:28:39.130Z,21.10
2022-09-20T15:31:06.747Z,20.88
2022-09-20T15:33:34.312Z,21.32
2022-09-20T15:36:03.450Z,21.34
2022-09-20T15:38:49.177Z,21.37
2022-09-20T15:41:16.706Z,21.39
2022-09-20T15:43:44.172Z,21.54
2022-09-20T15:46:20.676Z,21.66
2022-09-20T15:48:48.651Z,21.89
2022-09-20T15:51:16.738Z,22.12
2022-09-20T15:53:46.612Z,21.82
2022-09-20T15:56:31.247Z,22.01
2022-09-20T15:59:01.320Z,22.15
2022-09-20T16:01:32.233Z,22.03
2022-09-20T16:04:00.405Z,22.27
2022-09-20T16:06:27.861Z,21.87
2022-09-20T16:08:56.034Z,22.13
2022-09-20T16:11:24.158Z,22.75
2022-09-20T16:13:55.931Z,22.94
2022-09-20T16:16:24.492Z,22.84
2022-09-20T16:19:10.996Z,22.76
2022-09-20T16:21:40.496Z,22.75
2022-09-20T16:24:08.922Z,22.85
2022-09-20T16:26:37.290Z,22.81
2022-09-20T16:29:05.216Z,22.99
2022-09-20T16:31:41.337Z,22.97
2022-09-20T16:34:32.875Z,23.03
2022-09-20T16:37:12.067Z,23.45
2022-09-20T16:39:41.179Z,23.26
2022-09-20T16:42:12.647Z,23.54
2022-09-20T16:44:43.065Z,23.80
2022-09-20T16:47:22.348Z,23.75
2022-09-20T16:49:50.528Z,23.75
2022-09-20T16:52:18.064Z,24.03
2022-09-20T16:54:46.119Z,24.00
2022-09-20T16:57:15.839Z,24.42
2022-09-20T16:59:43.509Z,23.94
2022-09-20T17:02:12.946Z,24.18
2022-09-20T17:04:40.679Z,24.11
2022-09-20T17:07:09.086Z,24.32
2022-09-20T17:09:36.732Z,24.54
2022-09-20T17:12:06.959Z,24.45
2022-09-20T17:14:34.849Z,25.50
2022-09-20T17:17:02.870Z,24.56
2022-09-20T17:19:30.595Z,24.41
2022-09-20T17:21:58.340Z,24.94
2022-09-20T17:24:26.689Z,25.16
2022-09-20T17:26:54.346Z,25.46
2022-09-20T17:29:22.054Z,25.39
2022-09-20T17:31:56.789Z,25.09
2022-09-20T17:34:28.274Z,25.85
2022-09-20T17:36:55.957Z,26.01
2022-09-20T17:39:24.057Z,26.67
2022-09-20T17:41:51.770Z,26.21
2022-09-20T17:44:19.378Z,26.26
2022-09-20T17:46:49.875Z,25.98
2022-09-20T17:49:19.784Z,26.19
2022-09-20T17:51:49.845Z,26.25
2022-09-20T17:54:17.877Z,26.16
2022-09-20T17:56:48.175Z,26.36
2022-09-20T17:59:17.112Z,26.02
2022-09-20T18:01:46.673Z,25.63
2022-09-20T18:04:14.484Z,25.46
2022-09-20T18:06:50.037Z,26.67
2022-09-20T18:09:20.091Z,26.05
2022-09-20T18:11:53.173Z,25.78
2022-09-20T18:14:26.429Z,25.70
2022-09-20T18:16:56.291Z,25.97
2022-09-20T18:19:23.818Z,26.66
2022-09-20T18:21:51.680Z,26.57
2022-09-20T18:24:19.250Z,26.47
2022-09-20T18:26:46.713Z,26.58
2022-09-20T18:29:18.185Z,27.01
2022-09-20T18:31:50.875Z,27.44
2022-09-20T18:34:23.722Z,26.46
2022-09-20T18:36:56.345Z,26.72
2022-09-20T18:39:26.209Z,27.28
2022-09-20T18:41:53.991Z,27.45
2022-09-20T18:44:22.722Z,27.05
2022-09-20T18:46:55.356Z,27.35
2022-09-20T18:49:23.207Z,27.24
2022-09-20T18:51:50.656Z,27.71
2022-09-20T18:54:19.173Z,27.61
2022-09-20T18:56:49.206Z,27.45
2022-09-20T18:59:22.830Z,27.99
2022-09-20T19:02:34.671Z,27.91
2022-09-20T19:05:38.236Z,27.06
2022-09-20T19:08:25.007Z,27.66
2022-09-20T19:11:01.891Z,28.30
2022-09-20T19:13:47.030Z,28.14
2022-09-20T19:16:20.322Z,28.60
2022-09-20T19:19:08.254Z,28.26
2022-09-20T19:22:04.709Z,28.35
2022-09-20T19:24:56.884Z,28.57
2022-09-20T19:27:26.042Z,28.56
2022-09-20T19:29:54.104Z,28.39
2022-09-20T19:32:26.301Z,29.10
2022-09-20T19:34:56.281Z,29.39
2022-09-20T19:37:45.199Z,28.49
2022-09-20T19:40:21.924Z,29.80
2022-09-20T19:43:23.914Z,28.72
2022-09-20T19:46:21.280Z,28.14
2022-09-20T19:48:56.793Z,29.13
2022-09-20T19:51:26.305Z,29.07
2022-09-20T19:53:55.604Z,29.51
2022-09-20T19:56:28.320Z,29.64
2022-09-20T19:58:56.582Z,29.22
2022-09-20T20:01:25.904Z,29.57
2022-09-20T20:03:55.109Z,30.29
2022-09-20T20:06:31.897Z,29.89
2022-09-20T20:09:23.809Z,30.39
2022-09-20T20:12:26.249Z,30.07
2022-09-20T20:14:59.326Z,29.87
2022-09-20T20:17:57.827Z,29.44
2022-09-20T20:20:37.147Z,29.95
2022-09-20T20:23:27.819Z,29.87
2022-09-20T20:26:03.370Z,30.11
2022-09-20T20:28:30.981Z,30.81
2022-09-20T20:31:02.478Z,30.29
2022-09-20T20:33:31.219Z,30.27
2022-09-20T20:36:00.883Z,30.21
2022-09-20T20:38:29.040Z,30.59
2022-09-20T20:41:04.150Z,30.45
2022-09-20T20:43:33.286Z,30.45
2022-09-20T20:46:01.221Z,30.43
2022-09-20T20:48:29.265Z,31.22
2022-09-20T20:51:10.760Z,31.33
2022-09-20T20:53:49.263Z,31.26
2022-09-20T20:56:21.294Z,31.04
2022-09-20T20:58:49.549Z,31.61
2022-09-20T21:01:22.675Z,31.61
2022-09-20T21:03:52.685Z,31.68
2022-09-20T21:06:21.884Z,31.49
2022-09-20T21:08:49.994Z,31.59
2022-09-20T21:11:26.396Z,31.81
2022-09-20T21:13:55.947Z,31.21
2022-09-20T21:16:26.438Z,32.06
2022-09-20T21:18:54.155Z,31.63
2022-09-20T21:21:26.244Z,32.21
2022-09-20T21:23:57.003Z,31.74
2022-09-20T21:26:25.814Z,31.80
2022-09-20T21:28:55.596Z,32.09
2022-09-20T21:31:24.356Z,32.07
2022-09-20T21:33:52.608Z,32.24
2022-09-20T21:36:22.074Z,32.52
2022-09-20T21:38:49.905Z,32.17
2022-09-20T21:41:29.605Z,33.36
2022-09-20T21:44:00.287Z,32.97
2022-09-20T21:46:32.925Z,33.52
2022-09-20T21:49:04.211Z,33.01
2022-09-20T21:51:36.763Z,33.19
2022-09-20T21:54:04.887Z,33.30
2022-09-20T21:56:34.661Z,33.63
2022-09-20T21:59:04.386Z,34.04
2022-09-20T22:01:35.150Z,34.07
2022-09-20T22:04:11.778Z,34.79
2022-09-20T22:10:09.186Z,34.41
2022-09-20T22:12:37.891Z,34.52
2022-09-20T22:15:06.432Z,34.81
2022-09-20T22:17:33.819Z,34.85
2022-09-20T22:20:01.384Z,35.11
2022-09-20T22:22:30.439Z,35.72
2022-09-20T22:24:57.832Z,36.40
2022-09-20T22:27:25.290Z,36.94
2022-09-20T22:29:52.814Z,37.18
2022-09-20T22:32:20.283Z,37.11
2022-09-20T22:34:47.732Z,37.32
2022-09-20T22:37:15.219Z,38.35
2022-09-20T22:39:42.857Z,38.63
2022-09-20T22:42:10.331Z,39.41
2022-09-20T22:44:37.943Z,39.55
2022-09-20T22:47:05.495Z,40.24
2022-09-20T22:49:32.883Z,40.38
2022-09-20T22:52:00.252Z,40.66
2022-09-20T22:54:27.625Z,41.62
2022-09-20T22:56:55.108Z,41.39
2022-09-20T22:59:22.449Z,42.02
2022-09-20T23:01:49.894Z,42.39
2022-09-20T23:04:19.705Z,42.85
2022-09-20T23:06:55.218Z,43.13
2022-09-20T23:09:25.146Z,43.48
2022-09-20T23:11:52.817Z,43.10
2022-09-20T23:14:21.896Z,44.52
2022-09-20T23:16:49.831Z,44.18
2022-09-20T23:19:17.943Z,44.44
2022-09-20T23:21:45.378Z,44.79
2022-09-20T23:24:15.043Z,45.40
2022-09-20T23:26:43.721Z,45.89
2022-09-20T23:29:13.219Z,46.32
2022-09-20T23:31:45.860Z,46.88
2022-09-20T23:34:14.850Z,46.93
2022-09-20T23:36:43.378Z,45.99
2022-09-20T23:39:12.114Z,47.16
2022-09-20T23:41:41.512Z,46.43
2022-09-20T23:44:10.406Z,47.11
2022-09-20T23:46:38.713Z,46.92
2022-09-20T23:49:07.074Z,46.68
2022-09-20T23:51:35.732Z,47.10
2022-09-20T23:54:03.557Z,46.50
2022-09-20T23:56:31.247Z,46.23
2022-09-20T23:58:58.655Z,46.53
